Time;durP1;ratioP1;P1;durP2;ratioP2;P2;SDS_P1;SDS_P2;PMS_P1;PMS_P2;Temp;Humidity;BMP_temperature;BMP_pressure;BME280_temperature;BME280_humidity;BME280_pressure;Samples;Min_cycle;Max_cycle;Signal;HPM_P1;HPM_P2
2022/06/01 00:00:10;;;;;;;33.38;21.60;;;;;;;16.09;99.75;100233.19;5048438;28;20075;-67
2022/06/01 00:02:37;;;;;;;36.55;22.20;;;;;;;16.08;99.65;100250.41;5050940;28;20032;-67
2022/06/01 00:05:04;;;;;;;34.55;23.00;;;;;;;16.01;99.70;100235.88;5065790;28;20044;-67
2022/06/01 00:07:29;;;;;;;33.65;21.90;;;;;;;16.00;99.58;100247.72;5052249;28;20028;-67
2022/06/01 00:09:55;;;;;;;33.25;21.75;;;;;;;15.97;99.45;100243.50;5070272;28;20039;-67
2022/06/01 00:12:22;;;;;;;39.97;23.70;;;;;;;15.91;99.18;100238.78;5070208;28;20056;-67
2022/06/01 00:14:47;;;;;;;34.63;22.48;;;;;;;15.91;99.35;100236.06;5070679;28;20032;-67
2022/06/01 00:17:13;;;;;;;33.95;21.75;;;;;;;15.85;99.30;100237.59;5067701;28;20390;-67
2022/06/01 00:19:38;;;;;;;35.72;21.40;;;;;;;15.79;99.36;100234.72;5068766;28;20024;-67
2022/06/01 00:22:14;;;;;;;34.20;22.48;;;;;;;15.73;99.50;100233.53;5064783;28;20400;-67
2022/06/01 00:24:44;;;;;;;35.40;21.75;;;;;;;15.67;99.59;100222.56;5050193;28;20021;-67
2022/06/01 00:27:11;;;;;;;30.58;20.58;;;;;;;15.70;99.17;100235.72;5050408;28;20021;-67
2022/06/01 00:29:38;;;;;;;33.80;22.55;;;;;;;15.67;98.89;100230.66;5049871;28;20044;-66
2022/06/01 00:32:04;;;;;;;31.95;20.55;;;;;;;15.63;99.34;100227.47;5067878;28;20166;-67
2022/06/01 00:34:30;;;;;;;33.50;22.13;;;;;;;15.59;99.46;100228.81;5069582;28;20043;-67
2022/06/01 00:36:55;;;;;;;35.40;21.85;;;;;;;15.55;99.55;100223.94;5070150;28;20024;-67
2022/06/01 00:39:21;;;;;;;30.90;20.55;;;;;;;15.55;99.41;100226.63;5069810;28;20033;-66
2022/06/01 00:41:46;;;;;;;35.97;21.02;;;;;;;15.46;99.87;100217.66;5068892;28;20048;-67
2022/06/01 00:44:12;;;;;;;31.40;19.20;;;;;;;15.41;99.52;100213.75;5050408;28;20028;-67
2022/06/01 00:46:38;;;;;;;32.20;20.10;;;;;;;15.45;99.36;100234.06;5049827;28;20043;-67
2022/06/01 00:49:24;;;;;;;37.35;19.88;;;;;;;15.40;99.49;100231.00;5054443;28;20028;-67
2022/06/01 00:51:51;;;;;;;33.83;20.67;;;;;;;15.38;99.62;100225.75;5068182;28;20582;-66
2022/06/01 00:54:16;;;;;;;29.67;20.05;;;;;;;15.36;99.59;100218.81;5066975;28;20035;-67
2022/06/01 00:56:56;;;;;;;29.20;19.27;;;;;;;15.32;99.32;100226.38;5066495;28;20020;-67
2022/06/01 00:59:28;;;;;;;29.77;19.60;;;;;;;15.26;99.15;100227.06;5066527;28;20490;-66
2022/06/01 01:01:55;;;;;;;31.90;19.00;;;;;;;15.25;99.39;100228.06;5066624;28;20054;-67
2022/06/01 01:04:22;;;;;;;28.17;18.45;;;;;;;15.23;99.46;100229.25;5049918;28;20495;-67
2022/06/01 01:06:48;;;;;;;29.17;18.52;;;;;;;15.20;99.71;100219.63;5046770;28;20473;-67
2022/06/01 01:09:14;;;;;;;27.98;18.20;;;;;;;15.20;100.00;100225.03;5054721;28;20036;-67
2022/06/01 01:11:51;;;;;;;28.52;18.73;;;;;;;15.16;100.00;100225.53;5067304;28;20122;-67
2022/06/01 01:14:20;;;;;;;29.48;18.70;;;;;;;15.12;100.00;100226.88;5055591;28;20025;-67
2022/06/01 01:16:49;;;;;;;25.77;17.38;;;;;;;15.11;100.00;100225.19;5047433;28;20360;-67
2022/06/01 01:19:35;;;;;;;31.17;17.73;;;;;;;15.08;100.00;100226.34;5056960;28;20021;-67
2022/06/01 01:22:27;;;;;;;29.30;18.83;;;;;;;15.05;100.00;100231.22;5052932;28;20471;-67
2022/06/01 01:25:20;;;;;;;30.35;18.02;;;;;;;15.04;100.00;100238.50;5057628;28;20029;-67
2022/06/01 01:27:48;;;;;;;29.00;17.50;;;;;;;14.96;100.00;100224.16;5067063;28;20082;-67
2022/06/01 01:30:37;;;;;;;28.88;17.67;;;;;;;14.99;100.00;100238.16;5065645;28;20036;-66
2022/06/01 01:33:23;;;;;;;24.25;16.73;;;;;;;14.99;100.00;100237.31;5067175;28;20028;-67
2022/06/01 01:35:53;;;;;;;24.38;17.02;;;;;;;14.98;100.00;100235.63;5065952;28;20043;-67
2022/06/01 01:38:28;;;;;;;26.48;17.60;;;;;;;14.94;100.00;100239.66;5064105;28;20114;-66
2022/06/01 01:41:01;;;;;;;25.10;17.20;;;;;;;14.88;100.00;100234.91;5058683;28;20078;-67
2022/06/01 01:43:26;;;;;;;23.90;17.50;;;;;;;14.85;100.00;100237.94;5045366;28;20443;-67
2022/06/01 01:45:52;;;;;;;32.03;16.55;;;;;;;14.82;100.00;100230.16;5045756;28;20178;-66
2022/06/01 01:48:17;;;;;;;24.70;16.20;;;;;;;14.83;100.00;100230.00;5065268;28;20976;-67
2022/06/01 01:50:43;;;;;;;26.02;17.10;;;;;;;14.86;100.00;100236.91;5066785;28;20025;-67
2022/06/01 01:53:08;;;;;;;24.85;16.77;;;;;;;14.84;100.00;100238.94;5050574;28;20515;-66
2022/06/01 01:55:50;;;;;;;28.55;17.02;;;;;;;14.82;100.00;100230.16;5060212;28;20075;-67
2022/06/01 01:58:32;;;;;;;25.40;16.70;;;;;;;14.80;100.00;100232.19;5047311;28;20064;-67
2022/06/01 02:01:03;;;;;;;24.75;17.42;;;;;;;14.80;100.00;100238.41;5065589;28;20024;-67
2022/06/01 02:03:34;;;;;;;26.83;17.58;;;;;;;14.81;100.00;100232.03;5066716;28;20045;-67
2022/06/01 02:06:23;;;;;;;23.98;17.35;;;;;;;14.80;100.00;100232.19;5066753;28;20036;-67
2022/06/01 02:09:13;;;;;;;24.92;17.02;;;;;;;14.82;100.00;100236.41;5059218;28;20041;-67
2022/06/01 02:14:32;;;;;;;25.08;16.40;;;;;;;14.78;100.00;100226.09;5066134;28;20093;-67
2022/06/01 02:17:04;;;;;;;26.20;17.52;;;;;;;14.77;100.00;100230.66;5057471;28;20374;-67
2022/06/01 02:19:42;;;;;;;28.92;18.33;;;;;;;14.78;100.00;100223.41;5045604;28;20029;-66
2022/06/01 02:22:10;;;;;;;27.77;18.08;;;;;;;14.80;100.00;100232.19;5049877;28;20471;-66
2022/06/01 02:24:37;;;;;;;39.88;24.48;;;;;;;14.81;100.00;100233.88;5051930;28;20024;-67
2022/06/01 02:27:04;;;;;;;46.75;28.05;;;;;;;14.84;100.00;100228.16;5049680;28;20060;-67
2022/06/01 02:29:35;;;;;;;56.72;30.50;;;;;;;14.88;100.00;100227.66;5050574;28;20045;-67
2022/06/01 02:32:02;;;;;;;59.08;35.42;;;;;;;14.94;100.00;100226.16;5047828;28;20049;-67
2022/06/01 02:34:29;;;;;;;71.10;39.05;;;;;;;14.97;100.00;100229.38;5053799;28;20036;-67
2022/06/01 02:36:56;;;;;;;75.38;39.03;;;;;;;15.05;100.00;100228.53;5049593;28;20060;-67
2022/06/01 02:39:23;;;;;;;72.55;39.65;;;;;;;15.09;100.00;100227.22;5051511;28;20031;-67
2022/06/01 02:44:33;;;;;;;57.60;33.75;;;;;;;15.19;100.00;100239.53;5048909;28;20036;-67
2022/06/01 02:46:58;;;;;;;43.92;27.63;;;;;;;15.18;100.00;100229.75;5048716;28;20033;-67
2022/06/01 02:49:24;;;;;;;42.40;24.67;;;;;;;15.13;100.00;100224.00;5049469;28;20124;-67
2022/06/01 02:51:50;;;;;;;42.30;25.33;;;;;;;15.15;100.00;100230.09;5048409;28;20028;-67
2022/06/01 02:54:15;;;;;;;40.45;25.08;;;;;;;15.13;100.00;100226.69;5049362;28;20043;-68
2022/06/01 02:56:41;;;;;;;46.83;26.27;;;;;;;15.14;100.00;100231.09;5048331;28;20104;-68
2022/06/01 02:59:06;;;;;;;45.90;27.98;;;;;;;15.19;100.00;100241.41;5048881;28;20111;-67
2022/06/01 03:01:33;;;;;;;44.00;26.17;;;;;;;15.16;100.00;100237.16;5047421;28;20045;-67
2022/06/01 03:03:59;;;;;;;46.63;27.13;;;;;;;15.06;100.00;100233.78;5068036;28;20056;-68
2022/06/01 03:06:24;;;;;;;50.97;28.60;;;;;;;15.15;100.00;100248.13;5055070;28;20041;-68
2022/06/01 03:08:50;;;;;;;49.20;29.85;;;;;;;15.17;100.00;100252.38;5060561;28;20041;-68
2022/06/01 03:11:15;;;;;;;50.05;29.25;;;;;;;15.12;100.00;100243.09;5056105;28;20025;-68
2022/06/01 03:13:41;;;;;;;48.05;28.23;;;;;;;15.19;100.00;100252.22;5053769;28;20028;-67
2022/06/01 03:16:07;;;;;;;48.55;28.67;;;;;;;15.17;100.00;100252.38;5069050;28;20031;-67
2022/06/01 03:18:32;;;;;;;48.63;29.27;;;;;;;15.13;100.00;100251.00;5053320;28;20047;-67
2022/06/01 03:20:59;;;;;;;48.38;28.15;;;;;;;15.12;100.00;100243.91;5054414;28;20111;-67
2022/06/01 03:23:25;;;;;;;49.47;29.90;;;;;;;15.22;100.00;100262.72;5049284;28;20036;-67
2022/06/01 03:25:51;;;;;;;49.90;29.55;;;;;;;15.20;100.00;100257.47;5047627;28;20086;-68
2022/06/01 03:28:16;;;;;;;46.83;29.38;;;;;;;15.20;100.00;100254.75;5049089;28;20028;-68
2022/06/01 03:30:43;;;;;;;47.88;30.13;;;;;;;15.14;100.00;100239.22;5056319;28;20048;-68
2022/06/01 03:33:10;;;;;;;53.47;32.15;;;;;;;15.22;100.00;100252.72;5048539;28;20021;-68
2022/06/01 03:35:36;;;;;;;62.25;34.17;;;;;;;15.25;100.00;100246.16;5048718;28;20056;-68
2022/06/01 03:38:03;;;;;;;59.65;34.78;;;;;;;15.27;100.00;100257.63;5066088;28;20032;-68
2022/06/01 03:40:31;;;;;;;76.22;41.38;;;;;;;15.31;100.00;100250.88;5060495;28;20028;-68
2022/06/01 03:42:57;;;;;;;82.88;44.10;;;;;;;15.35;100.00;100255.78;5060668;28;20055;-69
2022/06/01 03:48:08;;;;;;;91.97;49.75;;;;;;;15.45;100.00;100266.50;5068388;28;20424;-68
2022/06/01 03:50:35;;;;;;;88.25;48.35;;;;;;;15.54;100.00;100270.88;5054467;28;20040;-68
2022/06/01 03:53:02;;;;;;;87.22;47.42;;;;;;;15.60;100.00;100276.47;5048322;28;20573;-67
2022/06/01 03:55:29;;;;;;;86.93;47.75;;;;;;;15.65;100.00;100266.00;5054882;28;20094;-68
2022/06/01 03:57:55;;;;;;;90.88;47.55;;;;;;;15.73;100.00;100278.66;5067985;28;20020;-67
2022/06/01 04:00:25;;;;;;;89.07;46.53;;;;;;;15.78;100.00;100270.91;5063377;28;20027;-67
2022/06/01 04:02:51;;;;;;;82.40;46.03;;;;;;;15.84;100.00;100264.81;5047720;28;20039;-67
2022/06/01 04:05:18;;;;;;;74.03;42.58;;;;;;;15.92;100.00;100274.81;5067695;28;20052;-67
2022/06/01 04:07:44;;;;;;;83.63;44.22;;;;;;;16.02;100.00;100275.47;5061982;28;20033;-67
2022/06/01 04:10:11;;;;;;;79.50;44.05;;;;;;;16.12;100.00;100268.84;5050642;28;20436;-68
2022/06/01 04:12:37;;;;;;;72.78;40.03;;;;;;;16.22;100.00;100261.38;5062044;28;20090;-68
2022/06/01 04:15:05;;;;;;;82.43;45.80;;;;;;;16.34;100.00;100262.72;5058177;28;20785;-68
2022/06/01 04:17:30;;;;;;;87.35;47.17;;;;;;;16.41;100.00;100260.19;5067280;28;20028;-68
2022/06/01 04:19:56;;;;;;;80.30;45.78;;;;;;;16.47;100.00;100265.75;5057509;28;20086;-68
2022/06/01 04:22:22;;;;;;;75.72;44.15;;;;;;;16.56;100.00;100261.16;5044422;28;20030;-68
2022/06/01 04:24:47;;;;;;;78.85;45.25;;;;;;;16.61;100.00;100269.63;5047179;28;20086;-68
2022/06/01 04:27:13;;;;;;;78.70;44.88;;;;;;;16.67;100.00;100269.75;5066708;28;20028;-68
2022/06/01 04:29:39;;;;;;;83.18;45.95;;;;;;;16.74;100.00;100267.19;5059788;28;20028;-68
2022/06/01 04:32:10;;;;;;;79.55;42.30;;;;;;;16.84;100.00;100259.72;5054317;28;20024;-67
2022/06/01 04:34:35;;;;;;;77.82;45.15;;;;;;;16.95;100.00;100254.75;5047239;28;20029;-68
2022/06/01 04:37:01;;;;;;;75.60;43.20;;;;;;;17.11;100.00;100264.66;5047021;28;20017;-68
2022/06/01 04:39:26;;;;;;;78.47;45.22;;;;;;;17.20;100.00;100255.44;5066202;28;20051;-68
2022/06/01 04:41:52;;;;;;;79.18;44.78;;;;;;;17.29;100.00;100252.50;5067036;28;20046;-68
2022/06/01 04:44:19;;;;;;;74.97;43.40;;;;;;;17.53;100.00;100273.22;5066494;28;20035;-67
2022/06/01 04:46:45;;;;;;;79.60;45.38;;;;;;;17.63;100.00;100266.56;5067077;28;20025;-68
2022/06/01 04:49:10;;;;;;;76.82;42.97;;;;;;;17.78;100.00;100280.16;5067166;28;20031;-68
2022/06/01 04:51:37;;;;;;;78.15;44.03;;;;;;;17.89;100.00;100277.00;5053320;28;20025;-67
2022/06/01 04:54:03;;;;;;;74.80;43.88;;;;;;;18.05;100.00;100288.59;5061060;28;20032;-67
2022/06/01 04:56:30;;;;;;;83.07;46.88;;;;;;;18.13;100.00;100289.53;5064823;28;20470;-67
2022/06/01 04:58:55;;;;;;;76.07;44.67;;;;;;;18.11;100.00;100281.56;5067362;28;20035;-67
2022/06/01 05:01:21;;;;;;;76.10;43.10;;;;;;;18.10;100.00;100269.84;5066890;28;20029;-68
2022/06/01 05:03:47;;;;;;;71.15;44.47;;;;;;;18.26;100.00;100295.19;5066895;28;20052;-67
2022/06/01 05:06:12;;;;;;;82.00;45.88;;;;;;;18.28;100.00;100304.00;5059023;28;20170;-67
2022/06/01 05:08:38;;;;;;;79.00;46.55;;;;;;;18.11;100.00;100276.16;5066508;28;20032;-70
2022/06/01 05:11:04;;;;;;;80.43;46.85;;;;;;;18.23;100.00;100288.25;5060245;28;20119;-69
2022/06/01 05:13:29;;;;;;;84.70;47.47;;;;;;;18.11;100.00;100278.84;5054918;28;20533;-69
2022/06/01 05:15:58;;;;;;;78.78;45.97;;;;;;;18.10;100.00;100288.88;5055528;28;20501;-74
2022/06/01 05:18:25;;;;;;;70.30;42.63;;;;;;;18.15;100.00;100299.19;5045264;28;20029;-68
2022/06/01 05:20:53;;;;;;;77.00;46.15;;;;;;;18.18;100.00;100306.94;5046926;28;20227;-69
2022/06/01 05:23:19;;;;;;;74.28;45.30;;;;;;;18.17;100.00;100318.84;5065833;28;20052;-68
2022/06/01 05:25:47;;;;;;;81.85;47.75;;;;;;;18.18;100.00;100315.09;5066690;28;20375;-67
2022/06/01 05:28:15;;;;;;;74.30;45.72;;;;;;;18.17;100.00;100315.28;5053569;28;20032;-68
2022/06/01 05:30:41;;;;;;;80.95;47.65;;;;;;;18.10;100.00;100302.44;5046563;28;20036;-68
2022/06/01 05:33:07;;;;;;;73.43;45.47;;;;;;;18.15;100.00;100309.22;5043706;28;20050;-68
2022/06/01 05:35:32;;;;;;;65.10;42.47;;;;;;;18.17;100.00;100299.00;5053448;28;20048;-68
2022/06/01 05:37:58;;;;;;;58.90;39.50;;;;;;;18.24;100.00;100300.78;5065934;28;20029;-68
2022/06/01 05:40:24;;;;;;;73.18;46.65;;;;;;;18.41;100.00;100313.22;5067267;28;20040;-69
2022/06/01 05:42:50;;;;;;;64.95;40.25;;;;;;;18.58;100.00;100316.63;5066723;28;20074;-69
2022/06/01 05:45:15;;;;;;;77.30;47.80;;;;;;;18.68;100.00;100319.91;5067131;28;20028;-68
2022/06/01 05:47:41;;;;;;;71.95;43.80;;;;;;;18.72;100.00;100319.34;5062562;28;20106;-67
2022/06/01 05:50:06;;;;;;;62.60;41.03;;;;;;;18.75;100.00;100316.25;5046826;28;20029;-68
2022/06/01 05:52:32;;;;;;;70.13;43.97;;;;;;;18.80;99.55;100321.97;5046610;28;20065;-68
2022/06/01 05:54:57;;;;;;;70.97;43.83;;;;;;;18.81;99.16;100323.66;5053743;28;20756;-67
2022/06/01 05:57:23;;;;;;;73.13;45.42;;;;;;;18.85;98.99;100337.69;5069469;28;20110;-67
2022/06/01 05:59:49;;;;;;;64.80;41.33;;;;;;;18.88;99.16;100332.75;5070802;28;20518;-67
2022/06/01 06:02:14;;;;;;;64.40;41.50;;;;;;;18.81;98.94;100314.66;5070969;28;20024;-67
2022/06/01 06:04:40;;;;;;;71.20;45.35;;;;;;;18.91;99.00;100332.38;5070565;28;20418;-67
2022/06/01 06:07:05;;;;;;;67.72;42.63;;;;;;;18.94;98.88;100332.00;5070681;28;20032;-68
2022/06/01 06:09:30;;;;;;;63.83;43.47;;;;;;;19.01;98.84;100338.38;5070563;28;20029;-68
2022/06/01 06:11:56;;;;;;;62.88;40.20;;;;;;;19.08;98.52;100335.72;5070578;28;20034;-68
2022/06/01 06:14:22;;;;;;;66.00;41.72;;;;;;;19.13;98.71;100345.03;5070372;28;20039;-68
2022/06/01 06:16:47;;;;;;;59.70;40.72;;;;;;;19.17;98.50;100338.19;5070204;28;20031;-68
2022/06/01 06:19:15;;;;;;;64.22;43.08;;;;;;;19.23;98.51;100345.59;5063541;28;20030;-68
2022/06/01 06:21:41;;;;;;;71.20;43.05;;;;;;;19.32;98.94;100340.91;5050363;28;20453;-68
2022/06/01 06:24:12;;;;;;;60.28;40.75;;;;;;;19.37;98.65;100331.13;5050503;28;20052;-68
2022/06/01 06:26:39;;;;;;;63.90;40.03;;;;;;;19.52;98.65;100340.13;5066387;28;20021;-68
2022/06/01 06:29:08;;;;;;;52.97;35.92;;;;;;;19.73;98.57;100333.84;5060683;28;20125;-68
2022/06/01 06:31:34;;;;;;;56.58;34.17;;;;;;;19.95;97.86;100344.56;5055324;28;20033;-68
2022/06/01 06:34:00;;;;;;;61.85;39.55;;;;;;;20.13;96.37;100339.53;5065769;28;20417;-68
2022/06/01 06:36:25;;;;;;;61.60;39.80;;;;;;;20.27;95.51;100332.31;5070086;28;20032;-69
2022/06/01 06:38:51;;;;;;;60.97;41.60;;;;;;;20.43;94.82;100336.63;5066521;28;20064;-69
2022/06/01 06:41:17;;;;;;;47.85;34.30;;;;;;;20.62;94.67;100331.34;5050165;28;20028;-69
2022/06/01 06:43:43;;;;;;;66.75;45.80;;;;;;;20.72;93.90;100320.94;5049820;28;20535;-68
2022/06/01 06:46:11;;;;;;;64.82;41.58;;;;;;;21.01;93.12;100328.91;5048462;28;20037;-69
2022/06/01 06:48:37;;;;;;;66.15;43.75;;;;;;;21.21;92.31;100329.84;5049667;28;20130;-69
2022/06/01 06:51:03;;;;;;;65.57;43.90;;;;;;;21.40;91.02;100314.59;5048649;28;20483;-69
2022/06/01 06:53:29;;;;;;;56.60;39.22;;;;;;;21.59;90.40;100311.09;5048412;28;20438;-69
2022/06/01 06:55:55;;;;;;;63.67;44.80;;;;;;;21.83;88.97;100318.78;5049898;28;20085;-69
2022/06/01 06:58:21;;;;;;;65.53;45.50;;;;;;;22.00;86.72;100309.13;5049813;28;20024;-69
2022/06/01 07:00:46;;;;;;;55.38;40.53;;;;;;;22.19;85.82;100316.50;5049530;28;20020;-69
2022/06/01 07:03:12;;;;;;;53.45;37.72;;;;;;;22.50;84.11;100318.63;5065123;28;20028;-68
2022/06/01 07:08:24;;;;;;;55.53;40.42;;;;;;;22.79;80.80;100310.78;5063199;28;20048;-68
2022/06/01 07:10:51;;;;;;;51.50;39.80;;;;;;;22.95;80.79;100315.81;5049276;28;20501;-68
2022/06/01 07:13:16;;;;;;;56.53;38.72;;;;;;;23.05;79.39;100318.13;5067835;28;20078;-68
2022/06/01 07:15:42;;;;;;;57.92;39.30;;;;;;;23.08;77.88;100306.75;5069165;28;20479;-68
2022/06/01 07:18:07;;;;;;;47.08;34.22;;;;;;;23.24;78.35;100309.84;5069435;28;20392;-68
2022/06/01 07:20:33;;;;;;;45.50;32.60;;;;;;;23.29;77.26;100290.03;5068028;28;20024;-68
2022/06/01 07:22:58;;;;;;;44.97;33.50;;;;;;;23.51;76.46;100297.72;5069425;28;20053;-67
2022/06/01 07:25:25;;;;;;;41.03;32.13;;;;;;;23.70;74.67;100301.44;5069361;28;20082;-67
2022/06/01 07:27:51;;;;;;;41.83;30.75;;;;;;;23.74;73.49;100298.03;5050785;28;20029;-68
2022/06/01 07:30:17;;;;;;;35.92;28.25;;;;;;;23.89;73.16;100295.81;5069014;28;20031;-68
2022/06/01 07:32:47;;;;;;;37.67;30.58;;;;;;;23.97;71.96;100286.53;5068965;28;20459;-68
2022/06/01 07:35:13;;;;;;;38.63;29.95;;;;;;;24.03;71.26;100293.88;5047072;28;20029;-68
2022/06/01 07:43:20;;;;;;;32.70;24.85;;;;;;;24.50;68.54;100301.47;5046492;28;20068;-69
2022/06/01 07:45:47;;;;;;;26.67;21.55;;;;;;;24.63;67.53;100297.78;5048589;28;20041;-69
2022/06/01 07:48:13;;;;;;;29.42;21.40;;;;;;;24.80;66.57;100296.16;5048871;28;20056;-69
2022/06/01 07:50:39;;;;;;;23.85;19.23;;;;;;;24.95;65.80;100288.41;5048644;28;20475;-69
2022/06/01 07:53:07;;;;;;;30.90;23.70;;;;;;;25.12;65.76;100305.94;5049049;28;20059;-69
2022/06/01 07:55:34;;;;;;;26.23;20.17;;;;;;;25.24;64.51;100299.44;5049076;28;20052;-69
2022/06/01 07:58:00;;;;;;;23.48;18.50;;;;;;;25.36;63.77;100296.78;5064830;28;20020;-69
2022/06/01 08:00:26;;;;;;;20.90;16.05;;;;;;;25.42;61.96;100301.34;5049202;28;20931;-69
2022/06/01 08:02:52;;;;;;;21.83;16.30;;;;;;;25.60;61.06;100301.34;5048387;28;20025;-69
2022/06/01 08:05:20;;;;;;;19.80;15.60;;;;;;;25.71;59.97;100300.53;5046938;28;20041;-69
2022/06/01 08:07:46;;;;;;;17.00;13.38;;;;;;;25.87;59.34;100306.22;5048198;28;20045;-70
2022/06/01 08:10:14;;;;;;;17.33;13.63;;;;;;;25.99;59.28;100309.03;5048602;28;20033;-69
2022/06/01 08:15:26;;;;;;;23.02;16.98;;;;;;;26.05;58.61;100319.94;5048545;28;20715;-69
2022/06/01 08:17:52;;;;;;;19.25;14.88;;;;;;;26.03;58.71;100307.50;5058782;28;20172;-69
2022/06/01 08:20:18;;;;;;;19.08;13.73;;;;;;;26.10;58.48;100320.06;5068057;28;20029;-69
2022/06/01 08:22:43;;;;;;;18.30;13.95;;;;;;;26.24;58.60;100317.94;5067946;28;20028;-69
2022/06/01 08:25:11;;;;;;;18.10;13.88;;;;;;;26.35;58.59;100337.19;5053919;28;20048;-69
2022/06/01 08:27:37;;;;;;;19.73;16.48;;;;;;;26.41;57.53;100330.75;5048093;28;20116;-69
2022/06/01 08:30:03;;;;;;;17.80;14.98;;;;;;;26.39;57.50;100335.69;5048235;28;20029;-69
2022/06/01 08:32:29;;;;;;;17.50;15.35;;;;;;;26.33;57.47;100333.03;5046642;28;20540;-69
2022/06/01 08:34:55;;;;;;;17.00;13.80;;;;;;;26.23;57.15;100324.50;5047751;28;20025;-69
2022/06/01 08:37:20;;;;;;;18.50;14.45;;;;;;;26.15;57.13;100333.94;5046587;28;20060;-69
2022/06/01 08:39:46;;;;;;;17.38;13.25;;;;;;;26.23;56.78;100336.38;5046356;28;20082;-69
2022/06/01 08:42:16;;;;;;;20.77;14.95;;;;;;;26.24;57.06;100350.94;5062635;28;20113;-69
2022/06/01 08:44:45;;;;;;;17.52;13.70;;;;;;;26.25;57.74;100347.13;5047718;28;20029;-69
2022/06/01 08:47:27;;;;;;;37.45;20.10;;;;;;;26.33;57.57;100352.28;5047558;28;20039;-69
2022/06/01 08:49:56;;;;;;;27.10;19.17;;;;;;;26.34;58.14;100348.44;5046188;28;20779;-69
2022/06/01 08:52:24;;;;;;;20.67;16.33;;;;;;;26.42;58.16;100354.47;5047752;28;20033;-69
2022/06/01 08:54:49;;;;;;;24.50;18.30;;;;;;;26.40;58.24;100344.75;5061374;28;20028;-69
2022/06/01 08:57:22;;;;;;;22.90;17.35;;;;;;;26.39;58.11;100343.09;5067618;28;20127;-69
2022/06/01 09:00:03;;;;;;;25.83;18.92;;;;;;;26.48;58.60;100356.25;5057578;28;20116;-69
2022/06/01 09:02:37;;;;;;;23.23;18.88;;;;;;;26.57;58.50;100353.16;5047452;28;20051;-69
2022/06/01 09:05:15;;;;;;;25.23;19.35;;;;;;;26.61;58.47;100352.50;5047406;28;20091;-69
2022/06/01 09:08:05;;;;;;;22.25;18.20;;;;;;;26.65;58.75;100356.44;5047471;28;20040;-69
2022/06/01 09:10:50;;;;;;;22.35;18.17;;;;;;;26.66;58.17;100354.53;5047525;28;20091;-69
2022/06/01 09:13:23;;;;;;;26.95;19.52;;;;;;;26.60;57.51;100359.03;5046000;28;20028;-69
2022/06/01 09:16:04;;;;;;;26.60;19.80;;;;;;;26.47;58.05;100335.31;5047289;28;20489;-69
2022/06/01 09:18:39;;;;;;;23.20;18.83;;;;;;;26.59;58.29;100359.28;5047160;28;20360;-69
2022/06/01 09:23:49;;;;;;;;;;;;;;;26.65;57.11;100363.84;5047514;28;20086;-69
2022/06/01 09:26:28;;;;;;;23.92;20.08;;;;;;;26.74;57.60;100374.28;5049721;28;19916;-69
2022/06/01 09:28:57;;;;;;;22.23;18.50;;;;;;;26.82;56.55;100371.16;5066524;28;20107;-69
2022/06/01 09:31:31;;;;;;;22.40;18.13;;;;;;;26.77;56.65;100373.81;5067085;28;20029;-69
2022/06/01 09:34:36;;;;;;;22.85;17.92;;;;;;;26.75;56.61;100366.84;5067026;28;20103;-69
2022/06/01 09:37:27;;;;;;;17.13;15.25;;;;;;;26.76;55.45;100379.53;5057484;28;20063;-69
2022/06/01 09:39:59;;;;;;;17.45;14.57;;;;;;;26.63;55.32;100380.59;5046440;28;20384;-69
2022/06/01 09:42:48;;;;;;;17.00;14.35;;;;;;;26.54;55.46;100374.56;5047152;28;20025;-69
2022/06/01 09:45:22;;;;;;;16.88;14.15;;;;;;;26.50;55.81;100365.13;5047184;28;20036;-69
2022/06/01 09:47:50;;;;;;;20.45;13.93;;;;;;;26.60;55.59;100382.97;5046572;28;20075;-69
2022/06/01 09:50:30;;;;;;;16.17;12.50;;;;;;;26.47;55.50;100359.22;5046988;28;20426;-69
2022/06/01 09:53:17;;;;;;;13.38;9.75;;;;;;;26.61;55.74;100381.88;5046924;28;20048;-69
2022/06/01 09:56:09;;;;;;;11.98;8.98;;;;;;;26.61;55.21;100381.88;5045678;28;20064;-69
2022/06/01 10:07:06;;;;;;;8.32;7.50;;;;;;;26.65;54.10;100394.13;5049905;28;20087;-70
2022/06/01 10:09:34;;;;;;;9.85;6.93;;;;;;;26.57;53.53;100376.03;5067270;28;20036;-69
2022/06/01 10:12:42;;;;;;;9.15;6.93;;;;;;;26.62;53.11;100398.19;5066789;28;20028;-69
2022/06/01 10:15:35;;;;;;;9.27;7.13;;;;;;;26.63;53.62;100399.03;5060910;28;20052;-69
2022/06/01 10:18:13;;;;;;;6.72;6.03;;;;;;;26.59;52.69;100384.88;5049039;28;20017;-69
2022/06/01 10:20:40;;;;;;;6.05;5.38;;;;;;;26.52;51.84;100386.88;5047065;28;20103;-69
2022/06/01 10:23:27;;;;;;;5.22;4.70;;;;;;;26.50;50.06;100387.13;5046799;28;20617;-69
2022/06/01 10:26:22;;;;;;;4.10;3.70;;;;;;;26.49;49.62;100393.72;5046633;28;20060;-69
2022/06/01 10:28:55;;;;;;;4.30;3.88;;;;;;;26.48;49.10;100388.44;5054542;28;20546;-69
2022/06/01 10:31:39;;;;;;;5.23;4.53;;;;;;;26.46;49.42;100387.81;5046830;28;20467;-69
2022/06/01 10:34:31;;;;;;;5.50;4.60;;;;;;;26.37;50.15;100378.22;5046556;28;20262;-69
2022/06/01 10:37:06;;;;;;;7.00;5.00;;;;;;;26.43;50.29;100389.16;5046390;28;20040;-70
2022/06/01 10:39:42;;;;;;;5.05;4.55;;;;;;;26.45;50.55;100377.91;5045076;28;20037;-70
2022/06/01 10:42:22;;;;;;;6.47;5.43;;;;;;;26.41;50.75;100379.47;5048506;28;20045;-69
2022/06/01 10:45:12;;;;;;;6.68;4.40;;;;;;;26.54;50.00;100387.50;5064433;28;20126;-69
2022/06/01 10:47:57;;;;;;;6.47;4.18;;;;;;;26.49;49.25;100379.94;5049812;28;20039;-69
2022/06/01 10:50:32;;;;;;;6.82;4.05;;;;;;;26.54;48.95;100382.00;5049984;28;20487;-69
2022/06/01 10:53:07;;;;;;;4.70;3.97;;;;;;;26.60;48.83;100385.72;5048233;28;20028;-69
2022/06/01 10:55:40;;;;;;;3.50;3.20;;;;;;;26.67;48.29;100390.06;5058799;28;20044;-69
2022/06/01 10:58:06;;;;;;;5.55;4.60;;;;;;;26.69;48.05;100385.16;5056452;28;20502;-69
2022/06/01 11:00:43;;;;;;;4.47;3.53;;;;;;;26.70;47.75;100378.59;5049780;28;20033;-69
2022/06/01 11:03:12;;;;;;;5.40;3.55;;;;;;;26.80;47.49;100383.50;5048217;28;20060;-69
2022/06/01 11:06:02;;;;;;;6.40;4.50;;;;;;;26.81;47.44;100387.91;5069211;28;20566;-70
2022/06/01 11:08:39;;;;;;;7.05;4.10;;;;;;;26.79;47.34;100382.63;5068533;28;20371;-70
2022/06/01 11:11:22;;;;;;;4.30;3.90;;;;;;;26.76;46.57;100380.38;5047839;28;20029;-70
2022/06/01 11:14:21;;;;;;;3.72;3.08;;;;;;;26.73;46.58;100378.13;5049696;28;20390;-70
2022/06/01 11:16:58;;;;;;;6.18;3.33;;;;;;;26.76;46.88;100376.78;5049637;28;20267;-69
2022/06/01 11:19:32;;;;;;;5.65;3.88;;;;;;;26.77;47.29;100382.06;5049455;28;20024;-69
2022/06/01 11:22:28;;;;;;;9.13;4.20;;;;;;;26.80;47.41;100377.97;5049381;28;20098;-69
2022/06/01 11:25:15;;;;;;;4.45;3.60;;;;;;;26.83;46.62;100374.75;5049141;28;20032;-69
2022/06/01 11:28:00;;;;;;;4.80;3.83;;;;;;;26.82;47.08;100373.09;5061710;28;20086;-70
2022/06/01 11:30:26;;;;;;;;;;;;;;;26.81;46.86;100372.25;5066992;28;20039;-70
2022/06/01 11:33:03;;;;;;;5.10;3.70;;;;;;;26.87;47.27;100371.28;5055996;28;20418;-70
2022/06/01 11:35:41;;;;;;;4.65;4.15;;;;;;;26.95;47.76;100372.84;5061931;28;20036;-70
2022/06/01 11:38:17;;;;;;;4.72;4.13;;;;;;;27.00;47.61;100370.22;5050383;28;20096;-70
2022/06/01 11:40:49;;;;;;;5.43;3.95;;;;;;;26.93;47.24;100353.81;5049202;28;20552;-70
2022/06/01 11:43:24;;;;;;;5.07;4.20;;;;;;;27.04;46.85;100371.41;5058523;28;20024;-70
2022/06/01 11:45:57;;;;;;;5.30;3.25;;;;;;;27.04;45.51;100372.25;5068699;28;20024;-70
2022/06/01 11:48:30;;;;;;;3.60;3.25;;;;;;;27.03;45.28;100364.22;5069103;28;20115;-70
2022/06/01 11:51:20;;;;;;;3.33;3.00;;;;;;;27.06;44.90;100372.84;5046990;28;20119;-69
2022/06/01 11:53:58;;;;;;;5.10;3.67;;;;;;;27.08;44.42;100376.19;5063136;28;20370;-69